Main page
METAR-TAF:

METAR-TAF

Airports :

Jeddah, Saudi Arabia

King Abdulaziz International Airport

latitude: 21-42N, longitude: 039-11E, elevation: 15 m

Current weather observation

The report was made 1 hour and 9 minutes ago, at 18:00 UTC
Wind 4 kt from the East/Northeast
Temperature 22°C
Humidity 57%
Pressure 1016 hPa
Visibility 10 km or more
no clouds below 1500 m and no cumulonimbus

METAR: OEJN 191800Z 07004KT CAVOK 22/13 Q1016 NOSIG

Time: 22:09 (19:09 UTC)

Forecast

The report was made 2 hours and 9 minutes ago, at 17:00 UTC
Forecast valid from 19 at 18 UTC to 20 at 24 UTC
Wind 13 kt from the Northeast
Visibility: 8000 m
Few clouds at a height of 4000 ft
Temporary
from 19 at 18 UTC to 20 at 06 UTC
Visibility: 4000 m
widespread dust, haze
Becoming
from 20 at 08 UTC to 20 at 10 UTC
Wind 16 kt from the West/Northwest

TAF: OEJN 191700Z 1918/2024 04013KT 8000 FEW040 TEMPO 1918/2006 4000 DU HZ BECMG 2008/2010 30016KT

Weather observations and forecasts of more than 4000 airports (METAR and TAF reports).

The available stations are represented by yellow and red dots on the map.

Hover mouse over dot to see the name of the station.

Then click to see weather observations and forecasts.

To change the map : click on the green buttons with a black cross to zoom in, on the green button with a dash to zoom out, or on the green arrows for adjacent maps.


METAR-TAF: